Stoutsville, Ohio
Current Conditions -  °F | °C
As of 9:53 PM on Tuesday 21 Oct 2014 (Local Time) from KLHQ Reporting Station
Overcast Overcast  
Wind Chill: 42°   Ceiling: 4200
Heat Index: 46°   Visibility: 10mi
Dew Point: 41°   Wind: 7mph
Humidity: 83%   Direction: 330°NNW
Pressure: 30.14"   Gusts: NA
Location:  39.6°N, 82.83°W
Report Text: KLHQ 220153Z AUTO 33006KT 10SM FEW018 OVC042 08/05 A3014 RMK AO2 SLP207 T00780050
Loading
Personal Weather Stations






























Interactive Weather Map
Tropical Storm Tracking
New forecast layout! Learn more

10-Day Weather Forecast

Advertisements
Track Severe Weather on mobile